sensor_id;sensor_type;location;lat;lon;timestamp;P1;durP1;ratioP1;P2;durP2;ratioP2
5125;SDS011;63008;53.112;8.896;2023-06-24T00:01:42;11.40;;;9.67;;
5125;SDS011;63008;53.112;8.896;2023-06-24T00:03:43;11.03;;;9.10;;
5125;SDS011;63008;53.112;8.896;2023-06-24T00:05:47;9.80;;;8.70;;
5125;SDS011;63008;53.112;8.896;2023-06-24T00:07:49;12.10;;;10.33;;
5125;SDS011;63008;53.112;8.896;2023-06-24T00:09:50;15.47;;;9.80;;
5125;SDS011;63008;53.112;8.896;2023-06-24T00:11:51;10.40;;;9.30;;
5125;SDS011;63008;53.112;8.896;2023-06-24T00:13:52;14.57;;;9.80;;
5125;SDS011;63008;53.112;8.896;2023-06-24T00:15:54;18.00;;;10.30;;
5125;SDS011;63008;53.112;8.896;2023-06-24T00:17:55;13.27;;;9.47;;
5125;SDS011;63008;53.112;8.896;2023-06-24T00:20:05;12.70;;;9.87;;
5125;SDS011;63008;53.112;8.896;2023-06-24T00:22:11;13.00;;;10.17;;
5125;SDS011;63008;53.112;8.896;2023-06-24T00:24:12;11.33;;;10.23;;
5125;SDS011;63008;53.112;8.896;2023-06-24T00:26:13;15.70;;;11.00;;
5125;SDS011;63008;53.112;8.896;2023-06-24T00:28:14;15.30;;;10.10;;
5125;SDS011;63008;53.112;8.896;2023-06-24T00:30:15;13.43;;;9.90;;
5125;SDS011;63008;53.112;8.896;2023-06-24T00:32:16;20.80;;;10.33;;
5125;SDS011;63008;53.112;8.896;2023-06-24T00:34:17;15.80;;;12.00;;
5125;SDS011;63008;53.112;8.896;2023-06-24T00:36:20;12.20;;;10.97;;
5125;SDS011;63008;53.112;8.896;2023-06-24T00:38:21;15.50;;;11.97;;
5125;SDS011;63008;53.112;8.896;2023-06-24T00:40:22;17.93;;;11.03;;
5125;SDS011;63008;53.112;8.896;2023-06-24T00:42:23;13.73;;;12.20;;
5125;SDS011;63008;53.112;8.896;2023-06-24T00:44:24;16.90;;;11.20;;
5125;SDS011;63008;53.112;8.896;2023-06-24T00:46:25;15.07;;;10.37;;
5125;SDS011;63008;53.112;8.896;2023-06-24T00:48:27;22.20;;;12.10;;
5125;SDS011;63008;53.112;8.896;2023-06-24T00:50:29;17.37;;;11.10;;
5125;SDS011;63008;53.112;8.896;2023-06-24T00:52:30;12.63;;;11.30;;
5125;SDS011;63008;53.112;8.896;2023-06-24T00:54:31;21.93;;;13.43;;
5125;SDS011;63008;53.112;8.896;2023-06-24T00:56:33;15.53;;;12.30;;
5125;SDS011;63008;53.112;8.896;2023-06-24T00:58:38;19.73;;;13.20;;
5125;SDS011;63008;53.112;8.896;2023-06-24T01:00:39;16.20;;;11.60;;
5125;SDS011;63008;53.112;8.896;2023-06-24T01:02:41;24.87;;;12.60;;
5125;SDS011;63008;53.112;8.896;2023-06-24T01:04:43;15.03;;;11.83;;
5125;SDS011;63008;53.112;8.896;2023-06-24T01:06:45;16.70;;;12.87;;
5125;SDS011;63008;53.112;8.896;2023-06-24T01:08:46;17.17;;;13.20;;
5125;SDS011;63008;53.112;8.896;2023-06-24T01:10:51;18.07;;;12.90;;
5125;SDS011;63008;53.112;8.896;2023-06-24T01:12:52;14.93;;;12.00;;
5125;SDS011;63008;53.112;8.896;2023-06-24T01:14:53;20.83;;;12.13;;
5125;SDS011;63008;53.112;8.896;2023-06-24T01:16:56;16.03;;;12.07;;
5125;SDS011;63008;53.112;8.896;2023-06-24T01:19:10;17.27;;;12.80;;
5125;SDS011;63008;53.112;8.896;2023-06-24T01:21:31;16.63;;;12.47;;
5125;SDS011;63008;53.112;8.896;2023-06-24T01:23:55;19.40;;;13.97;;
5125;SDS011;63008;53.112;8.896;2023-06-24T01:31:34;19.33;;;13.70;;
5125;SDS011;63008;53.112;8.896;2023-06-24T01:33:37;16.40;;;13.53;;
5125;SDS011;63008;53.112;8.896;2023-06-24T01:35:43;18.80;;;14.93;;
5125;SDS011;63008;53.112;8.896;2023-06-24T01:37:50;25.83;;;15.63;;
5125;SDS011;63008;53.112;8.896;2023-06-24T01:42:23;22.60;;;15.37;;
5125;SDS011;63008;53.112;8.896;2023-06-24T01:44:24;19.33;;;15.70;;
5125;SDS011;63008;53.112;8.896;2023-06-24T01:46:29;20.53;;;15.37;;
5125;SDS011;63008;53.112;8.896;2023-06-24T01:48:32;21.10;;;14.83;;
5125;SDS011;63008;53.112;8.896;2023-06-24T01:50:35;22.10;;;14.43;;
5125;SDS011;63008;53.112;8.896;2023-06-24T01:52:37;21.30;;;15.50;;
5125;SDS011;63008;53.112;8.896;2023-06-24T01:54:41;24.50;;;14.73;;
5125;SDS011;63008;53.112;8.896;2023-06-24T01:56:43;23.10;;;14.47;;
5125;SDS011;63008;53.112;8.896;2023-06-24T01:58:45;19.43;;;14.40;;
5125;SDS011;63008;53.112;8.896;2023-06-24T02:00:47;30.03;;;16.00;;
5125;SDS011;63008;53.112;8.896;2023-06-24T02:02:49;26.10;;;15.57;;
5125;SDS011;63008;53.112;8.896;2023-06-24T02:04:51;23.50;;;14.00;;
5125;SDS011;63008;53.112;8.896;2023-06-24T02:06:55;23.10;;;16.80;;
5125;SDS011;63008;53.112;8.896;2023-06-24T02:08:56;25.23;;;14.80;;
5125;SDS011;63008;53.112;8.896;2023-06-24T02:10:59;23.27;;;16.10;;
5125;SDS011;63008;53.112;8.896;2023-06-24T02:13:01;21.57;;;15.23;;
5125;SDS011;63008;53.112;8.896;2023-06-24T02:15:04;18.30;;;15.07;;
5125;SDS011;63008;53.112;8.896;2023-06-24T02:17:08;30.03;;;18.67;;
5125;SDS011;63008;53.112;8.896;2023-06-24T02:19:10;18.60;;;14.93;;
5125;SDS011;63008;53.112;8.896;2023-06-24T02:21:12;22.87;;;15.67;;
5125;SDS011;63008;53.112;8.896;2023-06-24T02:23:13;26.73;;;15.23;;
5125;SDS011;63008;53.112;8.896;2023-06-24T02:25:14;21.87;;;15.43;;
5125;SDS011;63008;53.112;8.896;2023-06-24T02:27:15;18.53;;;13.73;;
5125;SDS011;63008;53.112;8.896;2023-06-24T02:29:17;18.73;;;14.40;;
5125;SDS011;63008;53.112;8.896;2023-06-24T02:31:19;18.40;;;12.80;;
5125;SDS011;63008;53.112;8.896;2023-06-24T02:33:20;19.67;;;14.93;;
5125;SDS011;63008;53.112;8.896;2023-06-24T02:35:21;22.50;;;14.40;;
5125;SDS011;63008;53.112;8.896;2023-06-24T02:37:22;16.60;;;14.77;;
5125;SDS011;63008;53.112;8.896;2023-06-24T02:39:23;19.63;;;14.63;;
5125;SDS011;63008;53.112;8.896;2023-06-24T02:41:27;19.73;;;15.03;;
5125;SDS011;63008;53.112;8.896;2023-06-24T02:43:28;20.23;;;15.17;;
5125;SDS011;63008;53.112;8.896;2023-06-24T02:45:29;18.97;;;14.00;;
5125;SDS011;63008;53.112;8.896;2023-06-24T02:47:30;17.93;;;14.50;;
5125;SDS011;63008;53.112;8.896;2023-06-24T02:49:33;21.30;;;14.50;;
5125;SDS011;63008;53.112;8.896;2023-06-24T02:51:34;18.30;;;14.40;;
5125;SDS011;63008;53.112;8.896;2023-06-24T02:53:36;19.90;;;14.90;;
5125;SDS011;63008;53.112;8.896;2023-06-24T02:55:38;23.00;;;14.20;;
5125;SDS011;63008;53.112;8.896;2023-06-24T02:57:41;24.30;;;14.90;;
5125;SDS011;63008;53.112;8.896;2023-06-24T02:59:42;25.53;;;15.23;;
5125;SDS011;63008;53.112;8.896;2023-06-24T03:01:43;20.77;;;16.07;;
5125;SDS011;63008;53.112;8.896;2023-06-24T03:03:46;24.33;;;15.60;;
5125;SDS011;63008;53.112;8.896;2023-06-24T03:05:49;20.90;;;14.07;;
5125;SDS011;63008;53.112;8.896;2023-06-24T03:07:52;19.47;;;14.40;;
5125;SDS011;63008;53.112;8.896;2023-06-24T03:09:53;25.33;;;16.77;;
5125;SDS011;63008;53.112;8.896;2023-06-24T03:11:54;27.23;;;16.67;;
5125;SDS011;63008;53.112;8.896;2023-06-24T03:13:55;25.37;;;16.83;;
5125;SDS011;63008;53.112;8.896;2023-06-24T03:15:56;20.97;;;16.70;;
5125;SDS011;63008;53.112;8.896;2023-06-24T03:17:57;20.73;;;16.17;;
5125;SDS011;63008;53.112;8.896;2023-06-24T03:19:58;22.27;;;15.70;;
5125;SDS011;63008;53.112;8.896;2023-06-24T03:21:59;22.57;;;15.60;;
5125;SDS011;63008;53.112;8.896;2023-06-24T03:24:00;29.23;;;16.20;;
5125;SDS011;63008;53.112;8.896;2023-06-24T03:26:01;23.27;;;16.63;;
5125;SDS011;63008;53.112;8.896;2023-06-24T03:28:03;21.27;;;16.63;;
5125;SDS011;63008;53.112;8.896;2023-06-24T03:30:08;21.37;;;16.60;;
5125;SDS011;63008;53.112;8.896;2023-06-24T03:32:09;24.47;;;16.40;;
5125;SDS011;63008;53.112;8.896;2023-06-24T03:34:10;26.90;;;16.20;;
5125;SDS011;63008;53.112;8.896;2023-06-24T03:36:11;31.67;;;18.37;;
5125;SDS011;63008;53.112;8.896;2023-06-24T03:38:13;27.73;;;18.07;;
5125;SDS011;63008;53.112;8.896;2023-06-24T03:40:14;23.57;;;18.10;;
5125;SDS011;63008;53.112;8.896;2023-06-24T03:42:15;21.83;;;17.77;;
5125;SDS011;63008;53.112;8.896;2023-06-24T03:44:16;34.17;;;17.53;;
5125;SDS011;63008;53.112;8.896;2023-06-24T03:46:17;27.37;;;16.53;;
5125;SDS011;63008;53.112;8.896;2023-06-24T03:48:18;26.37;;;16.67;;
5125;SDS011;63008;53.112;8.896;2023-06-24T03:50:19;22.70;;;16.10;;
5125;SDS011;63008;53.112;8.896;2023-06-24T03:52:20;20.60;;;17.20;;
5125;SDS011;63008;53.112;8.896;2023-06-24T03:54:21;26.17;;;16.67;;
5125;SDS011;63008;53.112;8.896;2023-06-24T03:56:22;28.67;;;17.00;;
5125;SDS011;63008;53.112;8.896;2023-06-24T03:58:23;32.67;;;18.13;;
5125;SDS011;63008;53.112;8.896;2023-06-24T04:00:24;22.17;;;16.40;;
5125;SDS011;63008;53.112;8.896;2023-06-24T04:02:25;19.93;;;16.20;;
5125;SDS011;63008;53.112;8.896;2023-06-24T04:04:27;21.17;;;16.37;;
5125;SDS011;63008;53.112;8.896;2023-06-24T04:06:28;26.37;;;18.50;;
5125;SDS011;63008;53.112;8.896;2023-06-24T04:08:29;21.23;;;16.67;;
5125;SDS011;63008;53.112;8.896;2023-06-24T04:10:30;25.87;;;18.20;;
5125;SDS011;63008;53.112;8.896;2023-06-24T04:12:31;34.23;;;19.07;;
5125;SDS011;63008;53.112;8.896;2023-06-24T04:14:32;22.50;;;19.10;;
5125;SDS011;63008;53.112;8.896;2023-06-24T04:16:33;27.93;;;18.43;;
5125;SDS011;63008;53.112;8.896;2023-06-24T04:18:34;30.77;;;20.03;;
5125;SDS011;63008;53.112;8.896;2023-06-24T04:20:37;27.27;;;19.13;;
5125;SDS011;63008;53.112;8.896;2023-06-24T04:22:39;25.33;;;17.87;;
5125;SDS011;63008;53.112;8.896;2023-06-24T04:24:41;21.43;;;16.93;;
5125;SDS011;63008;53.112;8.896;2023-06-24T04:26:42;24.47;;;18.70;;
5125;SDS011;63008;53.112;8.896;2023-06-24T04:28:43;23.77;;;19.20;;
5125;SDS011;63008;53.112;8.896;2023-06-24T04:30:44;27.13;;;19.50;;
5125;SDS011;63008;53.112;8.896;2023-06-24T04:32:45;24.70;;;17.90;;
5125;SDS011;63008;53.112;8.896;2023-06-24T04:34:46;25.10;;;17.80;;
5125;SDS011;63008;53.112;8.896;2023-06-24T04:36:47;22.77;;;17.80;;
5125;SDS011;63008;53.112;8.896;2023-06-24T04:38:48;21.63;;;17.30;;
5125;SDS011;63008;53.112;8.896;2023-06-24T04:40:49;29.40;;;17.87;;
5125;SDS011;63008;53.112;8.896;2023-06-24T04:42:50;21.97;;;17.50;;
5125;SDS011;63008;53.112;8.896;2023-06-24T04:44:51;29.67;;;20.33;;
5125;SDS011;63008;53.112;8.896;2023-06-24T04:46:52;22.07;;;18.10;;
5125;SDS011;63008;53.112;8.896;2023-06-24T04:48:53;23.90;;;17.33;;
5125;SDS011;63008;53.112;8.896;2023-06-24T04:50:54;23.47;;;18.23;;
5125;SDS011;63008;53.112;8.896;2023-06-24T04:52:55;26.13;;;18.00;;
5125;SDS011;63008;53.112;8.896;2023-06-24T04:54:57;27.93;;;18.13;;
5125;SDS011;63008;53.112;8.896;2023-06-24T04:56:58;24.40;;;18.70;;
5125;SDS011;63008;53.112;8.896;2023-06-24T04:58:59;25.73;;;19.87;;
5125;SDS011;63008;53.112;8.896;2023-06-24T05:01:00;23.90;;;17.33;;
5125;SDS011;63008;53.112;8.896;2023-06-24T05:03:01;24.53;;;18.50;;
5125;SDS011;63008;53.112;8.896;2023-06-24T05:05:02;25.57;;;18.00;;
5125;SDS011;63008;53.112;8.896;2023-06-24T05:07:03;22.37;;;17.33;;
5125;SDS011;63008;53.112;8.896;2023-06-24T05:09:04;20.63;;;16.27;;
5125;SDS011;63008;53.112;8.896;2023-06-24T05:11:05;22.37;;;16.87;;
5125;SDS011;63008;53.112;8.896;2023-06-24T05:13:06;25.20;;;17.83;;
5125;SDS011;63008;53.112;8.896;2023-06-24T05:15:07;21.10;;;15.60;;
5125;SDS011;63008;53.112;8.896;2023-06-24T05:17:08;21.13;;;16.47;;
5125;SDS011;63008;53.112;8.896;2023-06-24T05:19:09;21.77;;;17.20;;
5125;SDS011;63008;53.112;8.896;2023-06-24T05:21:10;25.07;;;16.40;;
5125;SDS011;63008;53.112;8.896;2023-06-24T05:23:12;23.77;;;16.40;;
5125;SDS011;63008;53.112;8.896;2023-06-24T05:25:13;21.93;;;16.60;;
5125;SDS011;63008;53.112;8.896;2023-06-24T05:27:14;22.80;;;16.80;;
5125;SDS011;63008;53.112;8.896;2023-06-24T05:29:16;23.17;;;16.50;;
5125;SDS011;63008;53.112;8.896;2023-06-24T05:31:17;20.60;;;17.10;;
5125;SDS011;63008;53.112;8.896;2023-06-24T05:33:19;25.13;;;16.27;;
5125;SDS011;63008;53.112;8.896;2023-06-24T05:35:20;20.20;;;16.53;;
5125;SDS011;63008;53.112;8.896;2023-06-24T05:37:21;28.43;;;17.03;;
5125;SDS011;63008;53.112;8.896;2023-06-24T05:39:22;24.83;;;16.33;;
5125;SDS011;63008;53.112;8.896;2023-06-24T05:41:23;20.47;;;15.67;;
5125;SDS011;63008;53.112;8.896;2023-06-24T05:43:25;17.27;;;14.10;;
5125;SDS011;63008;53.112;8.896;2023-06-24T05:45:26;21.67;;;15.77;;
5125;SDS011;63008;53.112;8.896;2023-06-24T05:47:27;20.23;;;15.60;;
5125;SDS011;63008;53.112;8.896;2023-06-24T05:49:28;21.93;;;15.40;;
5125;SDS011;63008;53.112;8.896;2023-06-24T05:51:29;21.57;;;14.67;;
5125;SDS011;63008;53.112;8.896;2023-06-24T05:53:30;20.90;;;14.90;;
5125;SDS011;63008;53.112;8.896;2023-06-24T05:55:31;20.33;;;13.17;;
5125;SDS011;63008;53.112;8.896;2023-06-24T05:57:32;18.50;;;12.33;;
5125;SDS011;63008;53.112;8.896;2023-06-24T05:59:33;18.03;;;12.87;;
5125;SDS011;63008;53.112;8.896;2023-06-24T06:01:34;15.00;;;12.90;;
5125;SDS011;63008;53.112;8.896;2023-06-24T06:03:35;16.97;;;13.10;;
5125;SDS011;63008;53.112;8.896;2023-06-24T06:05:36;17.23;;;12.60;;
5125;SDS011;63008;53.112;8.896;2023-06-24T06:07:37;14.80;;;10.87;;
5125;SDS011;63008;53.112;8.896;2023-06-24T06:09:40;15.23;;;11.00;;
5125;SDS011;63008;53.112;8.896;2023-06-24T06:11:41;13.67;;;11.10;;
5125;SDS011;63008;53.112;8.896;2023-06-24T06:13:42;13.50;;;11.63;;
5125;SDS011;63008;53.112;8.896;2023-06-24T06:15:43;14.40;;;11.20;;
5125;SDS011;63008;53.112;8.896;2023-06-24T06:17:45;17.23;;;11.30;;
5125;SDS011;63008;53.112;8.896;2023-06-24T06:19:46;12.90;;;11.37;;
5125;SDS011;63008;53.112;8.896;2023-06-24T06:21:48;13.67;;;10.30;;
5125;SDS011;63008;53.112;8.896;2023-06-24T06:23:50;11.13;;;10.07;;
5125;SDS011;63008;53.112;8.896;2023-06-24T06:25:51;13.83;;;9.73;;
5125;SDS011;63008;53.112;8.896;2023-06-24T06:27:52;12.50;;;9.87;;
5125;SDS011;63008;53.112;8.896;2023-06-24T06:29:53;13.60;;;9.50;;
5125;SDS011;63008;53.112;8.896;2023-06-24T06:31:54;8.40;;;7.60;;
5125;SDS011;63008;53.112;8.896;2023-06-24T06:33:55;9.17;;;8.33;;
5125;SDS011;63008;53.112;8.896;2023-06-24T06:35:57;8.63;;;7.93;;
5125;SDS011;63008;53.112;8.896;2023-06-24T06:37:59;10.10;;;8.53;;
5125;SDS011;63008;53.112;8.896;2023-06-24T06:40:00;7.97;;;7.37;;
5125;SDS011;63008;53.112;8.896;2023-06-24T06:42:02;10.53;;;8.23;;
5125;SDS011;63008;53.112;8.896;2023-06-24T06:44:03;10.20;;;8.10;;
5125;SDS011;63008;53.112;8.896;2023-06-24T06:46:04;8.27;;;7.53;;
5125;SDS011;63008;53.112;8.896;2023-06-24T06:48:05;8.60;;;7.80;;
5125;SDS011;63008;53.112;8.896;2023-06-24T06:50:08;9.20;;;8.27;;
5125;SDS011;63008;53.112;8.896;2023-06-24T06:52:09;11.13;;;7.07;;
5125;SDS011;63008;53.112;8.896;2023-06-24T06:54:10;10.53;;;7.83;;
5125;SDS011;63008;53.112;8.896;2023-06-24T06:56:23;8.33;;;7.23;;
5125;SDS011;63008;53.112;8.896;2023-06-24T06:58:25;7.80;;;7.10;;
5125;SDS011;63008;53.112;8.896;2023-06-24T07:00:26;6.73;;;6.13;;
5125;SDS011;63008;53.112;8.896;2023-06-24T07:02:27;7.90;;;5.77;;
5125;SDS011;63008;53.112;8.896;2023-06-24T07:04:28;10.93;;;6.83;;
5125;SDS011;63008;53.112;8.896;2023-06-24T07:06:29;9.20;;;6.10;;
5125;SDS011;63008;53.112;8.896;2023-06-24T07:08:33;7.43;;;6.40;;
5125;SDS011;63008;53.112;8.896;2023-06-24T07:10:34;11.27;;;7.17;;
5125;SDS011;63008;53.112;8.896;2023-06-24T07:12:35;6.93;;;6.33;;
5125;SDS011;63008;53.112;8.896;2023-06-24T07:14:36;7.90;;;5.80;;
5125;SDS011;63008;53.112;8.896;2023-06-24T07:16:37;6.00;;;5.50;;
5125;SDS011;63008;53.112;8.896;2023-06-24T07:18:38;10.97;;;6.60;;
5125;SDS011;63008;53.112;8.896;2023-06-24T07:20:39;8.53;;;6.17;;
5125;SDS011;63008;53.112;8.896;2023-06-24T07:22:40;6.57;;;5.90;;
5125;SDS011;63008;53.112;8.896;2023-06-24T07:24:41;6.63;;;5.73;;
5125;SDS011;63008;53.112;8.896;2023-06-24T07:26:42;6.27;;;5.67;;
5125;SDS011;63008;53.112;8.896;2023-06-24T07:28:43;7.10;;;4.93;;
5125;SDS011;63008;53.112;8.896;2023-06-24T07:30:44;7.43;;;5.47;;
5125;SDS011;63008;53.112;8.896;2023-06-24T07:32:45;6.33;;;5.47;;
5125;SDS011;63008;53.112;8.896;2023-06-24T07:34:46;6.87;;;6.10;;
5125;SDS011;63008;53.112;8.896;2023-06-24T07:36:47;8.67;;;6.07;;
5125;SDS011;63008;53.112;8.896;2023-06-24T07:38:48;6.27;;;5.70;;
5125;SDS011;63008;53.112;8.896;2023-06-24T07:40:49;6.40;;;5.80;;
5125;SDS011;63008;53.112;8.896;2023-06-24T07:42:50;7.03;;;5.57;;
5125;SDS011;63008;53.112;8.896;2023-06-24T07:44:51;7.73;;;5.77;;
5125;SDS011;63008;53.112;8.896;2023-06-24T07:46:52;10.70;;;5.57;;
5125;SDS011;63008;53.112;8.896;2023-06-24T07:48:53;6.47;;;5.87;;
5125;SDS011;63008;53.112;8.896;2023-06-24T07:50:54;7.10;;;6.10;;
5125;SDS011;63008;53.112;8.896;2023-06-24T07:52:55;7.53;;;5.57;;
5125;SDS011;63008;53.112;8.896;2023-06-24T07:54:56;6.43;;;5.90;;
5125;SDS011;63008;53.112;8.896;2023-06-24T07:56:57;6.90;;;5.60;;
5125;SDS011;63008;53.112;8.896;2023-06-24T07:58:58;6.23;;;5.67;;
5125;SDS011;63008;53.112;8.896;2023-06-24T08:00:59;6.83;;;6.10;;
5125;SDS011;63008;53.112;8.896;2023-06-24T08:03:00;6.47;;;5.70;;
5125;SDS011;63008;53.112;8.896;2023-06-24T08:05:01;8.07;;;5.57;;
5125;SDS011;63008;53.112;8.896;2023-06-24T08:07:02;6.67;;;6.07;;
5125;SDS011;63008;53.112;8.896;2023-06-24T08:09:04;9.07;;;5.43;;
5125;SDS011;63008;53.112;8.896;2023-06-24T08:11:05;8.63;;;5.73;;
5125;SDS011;63008;53.112;8.896;2023-06-24T08:13:06;7.53;;;5.23;;
5125;SDS011;63008;53.112;8.896;2023-06-24T08:15:07;8.10;;;5.77;;
5125;SDS011;63008;53.112;8.896;2023-06-24T08:17:08;6.60;;;6.00;;
5125;SDS011;63008;53.112;8.896;2023-06-24T08:19:09;5.83;;;5.10;;
5125;SDS011;63008;53.112;8.896;2023-06-24T08:21:10;5.80;;;5.30;;
5125;SDS011;63008;53.112;8.896;2023-06-24T08:23:11;7.03;;;5.03;;
5125;SDS011;63008;53.112;8.896;2023-06-24T08:25:12;10.83;;;5.80;;
5125;SDS011;63008;53.112;8.896;2023-06-24T08:27:13;7.13;;;5.00;;
5125;SDS011;63008;53.112;8.896;2023-06-24T08:29:14;6.50;;;5.17;;
5125;SDS011;63008;53.112;8.896;2023-06-24T08:31:15;5.73;;;5.13;;
5125;SDS011;63008;53.112;8.896;2023-06-24T08:33:16;5.90;;;5.30;;
5125;SDS011;63008;53.112;8.896;2023-06-24T08:35:17;6.07;;;5.50;;
5125;SDS011;63008;53.112;8.896;2023-06-24T08:37:18;9.83;;;5.10;;
5125;SDS011;63008;53.112;8.896;2023-06-24T08:39:18;6.13;;;4.90;;
5125;SDS011;63008;53.112;8.896;2023-06-24T08:41:19;5.43;;;5.03;;
5125;SDS011;63008;53.112;8.896;2023-06-24T08:43:20;5.70;;;5.20;;
5125;SDS011;63008;53.112;8.896;2023-06-24T08:45:21;6.33;;;5.00;;
5125;SDS011;63008;53.112;8.896;2023-06-24T08:47:25;5.97;;;4.90;;
5125;SDS011;63008;53.112;8.896;2023-06-24T08:49:29;7.60;;;5.93;;
5125;SDS011;63008;53.112;8.896;2023-06-24T08:51:31;7.70;;;4.73;;
5125;SDS011;63008;53.112;8.896;2023-06-24T08:53:41;5.13;;;4.73;;
5125;SDS011;63008;53.112;8.896;2023-06-24T08:55:44;7.43;;;6.53;;
5125;SDS011;63008;53.112;8.896;2023-06-24T08:57:46;5.27;;;4.77;;
5125;SDS011;63008;53.112;8.896;2023-06-24T08:59:47;8.60;;;4.97;;
5125;SDS011;63008;53.112;8.896;2023-06-24T09:01:49;5.17;;;4.50;;
5125;SDS011;63008;53.112;8.896;2023-06-24T09:03:51;6.87;;;4.77;;
5125;SDS011;63008;53.112;8.896;2023-06-24T09:05:52;5.07;;;4.23;;
5125;SDS011;63008;53.112;8.896;2023-06-24T09:07:53;5.20;;;4.80;;
5125;SDS011;63008;53.112;8.896;2023-06-24T09:09:54;4.63;;;4.40;;
5125;SDS011;63008;53.112;8.896;2023-06-24T09:11:59;5.60;;;5.10;;
5125;SDS011;63008;53.112;8.896;2023-06-24T09:14:01;4.83;;;4.50;;
5125;SDS011;63008;53.112;8.896;2023-06-24T09:16:10;6.47;;;5.40;;
5125;SDS011;63008;53.112;8.896;2023-06-24T09:18:13;5.80;;;5.30;;
5125;SDS011;63008;53.112;8.896;2023-06-24T09:20:19;4.73;;;4.33;;
5125;SDS011;63008;53.112;8.896;2023-06-24T09:22:22;4.80;;;4.50;;
5125;SDS011;63008;53.112;8.896;2023-06-24T09:24:26;5.27;;;4.87;;
5125;SDS011;63008;53.112;8.896;2023-06-24T09:26:28;5.60;;;4.57;;
5125;SDS011;63008;53.112;8.896;2023-06-24T09:28:30;4.93;;;4.33;;
5125;SDS011;63008;53.112;8.896;2023-06-24T09:30:31;6.57;;;5.23;;
5125;SDS011;63008;53.112;8.896;2023-06-24T09:32:32;5.90;;;4.00;;
5125;SDS011;63008;53.112;8.896;2023-06-24T09:34:33;5.57;;;4.40;;
5125;SDS011;63008;53.112;8.896;2023-06-24T09:36:35;5.47;;;4.97;;
5125;SDS011;63008;53.112;8.896;2023-06-24T09:38:36;6.77;;;4.23;;
5125;SDS011;63008;53.112;8.896;2023-06-24T09:40:38;4.73;;;4.33;;
5125;SDS011;63008;53.112;8.896;2023-06-24T09:42:47;5.40;;;4.10;;
5125;SDS011;63008;53.112;8.896;2023-06-24T09:44:54;4.20;;;3.90;;
5125;SDS011;63008;53.112;8.896;2023-06-24T09:46:56;7.70;;;3.97;;
5125;SDS011;63008;53.112;8.896;2023-06-24T09:48:57;4.93;;;4.53;;
5125;SDS011;63008;53.112;8.896;2023-06-24T09:51:02;5.50;;;3.77;;
5125;SDS011;63008;53.112;8.896;2023-06-24T09:53:04;6.53;;;4.60;;
5125;SDS011;63008;53.112;8.896;2023-06-24T09:55:06;5.07;;;4.03;;
5125;SDS011;63008;53.112;8.896;2023-06-24T09:57:08;5.03;;;4.03;;
5125;SDS011;63008;53.112;8.896;2023-06-24T09:59:13;4.27;;;3.87;;
5125;SDS011;63008;53.112;8.896;2023-06-24T10:01:15;4.47;;;4.17;;
5125;SDS011;63008;53.112;8.896;2023-06-24T10:03:17;5.23;;;4.73;;
5125;SDS011;63008;53.112;8.896;2023-06-24T10:05:19;7.63;;;3.93;;
5125;SDS011;63008;53.112;8.896;2023-06-24T10:07:20;4.47;;;3.33;;
5125;SDS011;63008;53.112;8.896;2023-06-24T10:09:21;4.60;;;3.40;;
5125;SDS011;63008;53.112;8.896;2023-06-24T10:11:22;6.97;;;4.13;;
5125;SDS011;63008;53.112;8.896;2023-06-24T10:13:23;4.47;;;4.07;;
5125;SDS011;63008;53.112;8.896;2023-06-24T10:15:24;5.70;;;5.20;;
5125;SDS011;63008;53.112;8.896;2023-06-24T10:17:25;4.43;;;3.73;;
5125;SDS011;63008;53.112;8.896;2023-06-24T10:19:26;6.63;;;4.10;;
5125;SDS011;63008;53.112;8.896;2023-06-24T10:21:47;4.53;;;4.10;;
5125;SDS011;63008;53.112;8.896;2023-06-24T10:23:52;3.93;;;3.63;;
5125;SDS011;63008;53.112;8.896;2023-06-24T10:25:56;5.03;;;4.40;;
5125;SDS011;63008;53.112;8.896;2023-06-24T10:27:57;4.30;;;4.00;;
5125;SDS011;63008;53.112;8.896;2023-06-24T10:30:01;4.70;;;4.30;;
5125;SDS011;63008;53.112;8.896;2023-06-24T10:32:05;5.37;;;4.50;;
5125;SDS011;63008;53.112;8.896;2023-06-24T10:36:31;5.13;;;3.37;;
5125;SDS011;63008;53.112;8.896;2023-06-24T10:38:33;4.03;;;3.80;;
5125;SDS011;63008;53.112;8.896;2023-06-24T10:40:34;6.67;;;3.50;;
5125;SDS011;63008;53.112;8.896;2023-06-24T10:42:40;4.33;;;3.97;;
5125;SDS011;63008;53.112;8.896;2023-06-24T10:44:47;4.43;;;4.13;;
5125;SDS011;63008;53.112;8.896;2023-06-24T10:46:54;5.93;;;3.90;;
5125;SDS011;63008;53.112;8.896;2023-06-24T10:48:55;8.50;;;3.73;;
5125;SDS011;63008;53.112;8.896;2023-06-24T10:50:57;8.73;;;4.00;;
5125;SDS011;63008;53.112;8.896;2023-06-24T10:53:01;5.07;;;3.83;;
5125;SDS011;63008;53.112;8.896;2023-06-24T10:55:09;7.07;;;4.00;;
5125;SDS011;63008;53.112;8.896;2023-06-24T10:57:10;6.10;;;4.10;;
5125;SDS011;63008;53.112;8.896;2023-06-24T10:59:12;4.23;;;3.80;;
5125;SDS011;63008;53.112;8.896;2023-06-24T11:01:13;4.30;;;4.00;;
5125;SDS011;63008;53.112;8.896;2023-06-24T11:03:17;7.97;;;4.40;;
5125;SDS011;63008;53.112;8.896;2023-06-24T11:05:19;4.37;;;4.07;;
5125;SDS011;63008;53.112;8.896;2023-06-24T11:07:21;4.80;;;4.40;;
5125;SDS011;63008;53.112;8.896;2023-06-24T11:09:23;6.97;;;5.37;;
5125;SDS011;63008;53.112;8.896;2023-06-24T11:11:24;5.00;;;4.40;;
5125;SDS011;63008;53.112;8.896;2023-06-24T11:13:25;4.90;;;4.50;;
5125;SDS011;63008;53.112;8.896;2023-06-24T11:15:26;6.80;;;4.33;;
5125;SDS011;63008;53.112;8.896;2023-06-24T11:17:27;5.63;;;3.80;;
5125;SDS011;63008;53.112;8.896;2023-06-24T11:19:31;4.57;;;4.17;;
5125;SDS011;63008;53.112;8.896;2023-06-24T11:21:33;6.03;;;4.93;;
5125;SDS011;63008;53.112;8.896;2023-06-24T11:23:34;5.10;;;4.70;;
5125;SDS011;63008;53.112;8.896;2023-06-24T11:25:38;5.00;;;4.60;;
5125;SDS011;63008;53.112;8.896;2023-06-24T11:27:43;6.47;;;4.60;;
5125;SDS011;63008;53.112;8.896;2023-06-24T11:29:45;4.23;;;4.03;;
5125;SDS011;63008;53.112;8.896;2023-06-24T11:31:46;4.90;;;4.50;;
5125;SDS011;63008;53.112;8.896;2023-06-24T11:33:50;5.63;;;4.53;;
5125;SDS011;63008;53.112;8.896;2023-06-24T11:35:51;4.97;;;4.53;;
5125;SDS011;63008;53.112;8.896;2023-06-24T11:37:52;8.93;;;4.60;;
5125;SDS011;63008;53.112;8.896;2023-06-24T11:40:03;5.00;;;4.50;;
5125;SDS011;63008;53.112;8.896;2023-06-24T11:42:06;4.70;;;4.30;;
5125;SDS011;63008;53.112;8.896;2023-06-24T11:44:10;5.90;;;4.83;;
5125;SDS011;63008;53.112;8.896;2023-06-24T11:48:42;6.53;;;4.70;;
5125;SDS011;63008;53.112;8.896;2023-06-24T11:50:43;5.23;;;4.73;;
5125;SDS011;63008;53.112;8.896;2023-06-24T11:52:44;6.63;;;4.23;;
5125;SDS011;63008;53.112;8.896;2023-06-24T11:54:49;5.37;;;4.97;;
5125;SDS011;63008;53.112;8.896;2023-06-24T11:56:52;7.07;;;4.63;;
5125;SDS011;63008;53.112;8.896;2023-06-24T11:58:53;8.27;;;4.70;;
5125;SDS011;63008;53.112;8.896;2023-06-24T12:00:55;6.07;;;5.47;;
5125;SDS011;63008;53.112;8.896;2023-06-24T12:02:57;5.03;;;4.63;;
5125;SDS011;63008;53.112;8.896;2023-06-24T12:05:03;3.73;;;3.43;;
5125;SDS011;63008;53.112;8.896;2023-06-24T12:07:04;6.93;;;4.50;;
5125;SDS011;63008;53.112;8.896;2023-06-24T12:09:05;4.60;;;4.20;;
5125;SDS011;63008;53.112;8.896;2023-06-24T12:11:06;7.17;;;4.23;;
5125;SDS011;63008;53.112;8.896;2023-06-24T12:13:07;10.07;;;5.20;;
5125;SDS011;63008;53.112;8.896;2023-06-24T12:15:09;6.73;;;4.50;;
5125;SDS011;63008;53.112;8.896;2023-06-24T12:17:10;4.67;;;4.27;;
5125;SDS011;63008;53.112;8.896;2023-06-24T12:19:12;4.43;;;4.10;;
5125;SDS011;63008;53.112;8.896;2023-06-24T12:21:13;5.37;;;4.40;;
5125;SDS011;63008;53.112;8.896;2023-06-24T12:23:14;6.87;;;4.40;;
5125;SDS011;63008;53.112;8.896;2023-06-24T12:25:15;4.63;;;4.20;;
5125;SDS011;63008;53.112;8.896;2023-06-24T12:27:16;5.83;;;4.30;;
5125;SDS011;63008;53.112;8.896;2023-06-24T12:29:17;8.47;;;4.90;;